Ilyas Efendiyev — 9HES8 — position and weather

sailwx.info

Track history (hours):
 
Tides and Currents Weather Stations Pressure Air Temp Water Temp Dewpoint Dewpoint Depression Visibility Wind Speed Wind Dir Waves Ship Positions

Ilyas Efendiyev

Last reported at 2015-May-22 08:19 UTC. Time now 2015-May-27 20:04 UTC.
Position N 44°18' E 035°42'.

Length 140 m; draft 3.7 m.

Type: Cargo ship. MMSI: 215901000.

Date/timePositionNaut miles runAvg speedWind from/ knotsBaromVisibWave heightAir tempDewpointWater temp
2015-May-22 08:19N 44°18' E 035°42'7 8.0
2015-May-22 07:29N 44°14' E 035°35'40 8.1
2015-May-22 02:32N 43°46' E 034°54'278 8.4
2015-May-20 17:33N 41°17' E 029°36'9 8.6
2015-May-20 16:30N 41°16' E 029°24'  
2015-May-18 03:05N 37°37' E 025°52'5 9.6
2015-May-18 02:33N 37°32' E 025°52'10 8.8
2015-May-18 01:23N 37°24' E 026°01'8 9.0
2015-May-18 00:33N 37°20' E 026°09'19 9.1
2015-May-17 22:30N 37°09' E 026°29'9 9.3
2015-May-17 21:33N 37°04' E 026°38'9 9.5
2015-May-17 20:33N 36°56' E 026°43'10 9.5
2015-May-17 19:33N 36°48' E 026°49'18 9.0
2015-May-17 17:33N 36°33' E 027°01'9 9.0
2015-May-17 16:30N 36°25' E 027°09'10 9.3
2015-May-17 15:23N 36°18' E 027°17'25 8.9
2015-May-17 12:33N 35°58' E 027°37'9 9.1
2015-May-17 11:33N 35°51' E 027°43'9 9.3
2015-May-17 10:33N 35°43' E 027°51'11 8.8
2015-May-17 09:21N 35°35' E 027°59'135 9.0
2015-May-16 18:23N 33°50' E 029°41'25 8.3
2015-May-16 15:23N 33°31' E 030°00'147 9.0
2015-May-15 23:07N 31°34' E 031°47'5 8.7
2015-May-15 22:31N 31°29' E 031°45'  
Track history (hours):
 
Tides and Currents Weather Stations Pressure Air Temp Water Temp Dewpoint Dewpoint Depression Visibility Wind Speed Wind Dir Waves Ship Positions

Ilyas Efendiyev

Last reported at 2015-May-22 08:19 UTC. Time now 2015-May-27 20:04 UTC.
Position N 44°18' E 035°42'.

Length 140 m; draft 3.7 m.

Type: Cargo ship. MMSI: 215901000.

Date/timePositionNaut miles runAvg speedWind from/ knotsBaromVisibWave heightAir tempDewpointWater temp
2015-May-22 08:19N 44°18' E 035°42'7 8.0
2015-May-22 07:29N 44°14' E 035°35'40 8.1
2015-May-22 02:32N 43°46' E 034°54'278 8.4
2015-May-20 17:33N 41°17' E 029°36'9 8.6
2015-May-20 16:30N 41°16' E 029°24'  
2015-May-18 03:05N 37°37' E 025°52'5 9.6
2015-May-18 02:33N 37°32' E 025°52'10 8.8
2015-May-18 01:23N 37°24' E 026°01'8 9.0
2015-May-18 00:33N 37°20' E 026°09'19 9.1
2015-May-17 22:30N 37°09' E 026°29'9 9.3
2015-May-17 21:33N 37°04' E 026°38'9 9.5
2015-May-17 20:33N 36°56' E 026°43'10 9.5
2015-May-17 19:33N 36°48' E 026°49'18 9.0
2015-May-17 17:33N 36°33' E 027°01'9 9.0
2015-May-17 16:30N 36°25' E 027°09'10 9.3
2015-May-17 15:23N 36°18' E 027°17'25 8.9
2015-May-17 12:33N 35°58' E 027°37'9 9.1
2015-May-17 11:33N 35°51' E 027°43'9 9.3
2015-May-17 10:33N 35°43' E 027°51'11 8.8
2015-May-17 09:21N 35°35' E 027°59'135 9.0
2015-May-16 18:23N 33°50' E 029°41'25 8.3
2015-May-16 15:23N 33°31' E 030°00'147 9.0
2015-May-15 23:07N 31°34' E 031°47'5 8.7
2015-May-15 22:31N 31°29' E 031°45'  

Dump ship's entire track history